createdAt,value
2023-04-06T00:02:04.619Z,100766.19
2023-04-06T00:06:08.300Z,100763.16
2023-04-06T00:10:11.755Z,100762.30
2023-04-06T00:14:15.119Z,100763.64
2023-04-06T00:18:18.350Z,100757.27
2023-04-06T00:22:21.665Z,100756.59
2023-04-06T00:26:25.098Z,100754.16
2023-04-06T00:30:28.705Z,100753.55
2023-04-06T00:34:31.757Z,100754.39
2023-04-06T00:38:34.881Z,100752.70
2023-04-06T00:42:39.857Z,100751.86
2023-04-06T00:46:43.063Z,100746.88
2023-04-06T00:50:46.760Z,100748.32
2023-04-06T00:54:51.034Z,100747.56
2023-04-06T00:58:54.862Z,100745.64
2023-04-06T01:03:01.025Z,100748.23
2023-04-06T01:07:05.394Z,100741.79
2023-04-06T01:11:08.649Z,100736.28
2023-04-06T01:15:12.719Z,100738.05
2023-04-06T01:19:16.115Z,100740.86
2023-04-06T01:23:19.381Z,100738.92
2023-04-06T01:27:22.835Z,100735.27
2023-04-06T01:31:26.255Z,100733.91
2023-04-06T01:35:30.078Z,100738.34
2023-04-06T01:39:33.206Z,100739.09
2023-04-06T01:43:36.986Z,100734.70
2023-04-06T01:47:40.167Z,100733.92
2023-04-06T01:51:48.802Z,100736.82
2023-04-06T01:55:51.876Z,100738.27
2023-04-06T01:59:56.054Z,100740.39
2023-04-06T02:03:59.216Z,100737.23
2023-04-06T02:08:02.224Z,100740.11
2023-04-06T02:12:06.085Z,100742.89
2023-04-06T02:16:17.545Z,100750.21
2023-04-06T02:20:20.678Z,100751.35
2023-04-06T02:24:24.073Z,100750.45
2023-04-06T02:28:27.566Z,100750.00
2023-04-06T02:32:31.163Z,100748.82
2023-04-06T02:36:34.293Z,100747.86
2023-04-06T02:40:37.545Z,100749.61
2023-04-06T02:44:40.898Z,100755.53
2023-04-06T02:48:44.046Z,100761.38
2023-04-06T02:52:47.055Z,100762.95
2023-04-06T02:56:50.544Z,100762.34
2023-04-06T03:00:53.844Z,100761.65
2023-04-06T03:04:57.167Z,100762.54
2023-04-06T03:09:00.134Z,100768.27
2023-04-06T03:13:03.850Z,100768.30
2023-04-06T03:17:07.009Z,100762.13
2023-04-06T03:21:09.938Z,100769.42
2023-04-06T03:25:13.360Z,100767.80
2023-04-06T03:29:17.109Z,100765.27
2023-04-06T03:33:21.333Z,100768.82
2023-04-06T03:37:24.291Z,100771.35
2023-04-06T03:41:27.572Z,100772.66
2023-04-06T03:45:31.123Z,100781.98
2023-04-06T03:49:34.727Z,100785.19
2023-04-06T03:53:38.302Z,100785.27
2023-04-06T03:57:41.629Z,100790.96
2023-04-06T04:01:45.074Z,100794.34
2023-04-06T04:05:48.447Z,100793.98
2023-04-06T04:09:51.833Z,100799.69
2023-04-06T04:13:54.816Z,100797.39
2023-04-06T04:17:59.808Z,100798.88
2023-04-06T04:22:06.051Z,100803.91
2023-04-06T04:26:11.200Z,100800.66
2023-04-06T04:30:14.375Z,100805.79
2023-04-06T04:34:18.317Z,100804.02
2023-04-06T04:38:22.365Z,100803.55
2023-04-06T04:42:25.690Z,100802.91
2023-04-06T04:46:29.276Z,100803.03
2023-04-06T04:50:33.262Z,100806.08
2023-04-06T04:54:36.532Z,100808.44
2023-04-06T04:58:40.023Z,100808.68
2023-04-06T05:02:43.181Z,100800.10
2023-04-06T05:06:46.574Z,100804.47
2023-04-06T05:10:50.843Z,100799.54
2023-04-06T05:14:55.310Z,100801.05
2023-04-06T05:18:58.583Z,100803.42
2023-04-06T05:23:02.581Z,100806.27
2023-04-06T05:27:06.014Z,100808.34
2023-04-06T05:31:29.108Z,100814.10
2023-04-06T05:35:32.319Z,100814.20
2023-04-06T05:39:35.533Z,100814.18
2023-04-06T05:43:38.592Z,100819.64
2023-04-06T05:47:41.827Z,100821.78
2023-04-06T05:51:45.108Z,100812.92
2023-04-06T05:55:48.643Z,100812.48
2023-04-06T05:59:56.402Z,100811.76
2023-04-06T06:04:01.242Z,100809.82
2023-04-06T06:08:05.264Z,100806.40
2023-04-06T06:12:08.930Z,100808.59
2023-04-06T06:16:12.076Z,100808.27
2023-04-06T06:20:16.469Z,100812.23
2023-04-06T06:24:19.581Z,100814.70
2023-04-06T06:28:22.670Z,100818.02
2023-04-06T06:32:25.979Z,100813.10
2023-04-06T06:36:31.723Z,100813.23
2023-04-06T06:40:35.326Z,100815.92
2023-04-06T06:44:40.599Z,100821.31
2023-04-06T06:48:45.642Z,100823.98
2023-04-06T06:52:48.809Z,100828.23
2023-04-06T06:56:52.861Z,100821.98
2023-04-06T07:01:00.045Z,100822.11
2023-04-06T07:05:10.177Z,100824.32
2023-04-06T07:09:20.117Z,100823.77
2023-04-06T07:13:24.287Z,100822.83
2023-04-06T07:17:27.651Z,100820.83
2023-04-06T07:21:31.027Z,100823.20
2023-04-06T07:25:35.233Z,100826.47
2023-04-06T07:29:38.406Z,100826.31
2023-04-06T07:33:41.706Z,100829.34
2023-04-06T07:37:45.089Z,100821.47
2023-04-06T07:41:48.555Z,100821.13
2023-04-06T07:45:52.043Z,100825.02
2023-04-06T07:49:57.168Z,100826.40
2023-04-06T07:54:00.184Z,100827.90
2023-04-06T07:58:04.697Z,100823.63
2023-04-06T08:02:08.218Z,100819.63
2023-04-06T08:06:11.746Z,100816.86
2023-04-06T08:10:14.897Z,100813.98
2023-04-06T08:14:18.514Z,100811.84
2023-04-06T08:18:21.666Z,100813.34
2023-04-06T08:22:25.257Z,100815.02
2023-04-06T08:26:28.354Z,100813.86
2023-04-06T08:30:31.967Z,100816.35
2023-04-06T08:34:35.153Z,100818.83
2023-04-06T08:38:38.358Z,100818.02
2023-04-06T08:42:50.706Z,100817.81
2023-04-06T08:46:54.143Z,100813.66
2023-04-06T08:50:57.295Z,100810.40
2023-04-06T08:55:00.795Z,100809.42
2023-04-06T08:59:04.871Z,100809.82
2023-04-06T09:03:09.128Z,100800.30
2023-04-06T09:07:13.783Z,100794.91
2023-04-06T09:11:17.588Z,100792.08
2023-04-06T09:15:24.588Z,100791.50
2023-04-06T09:19:28.093Z,100789.14
2023-04-06T09:23:32.047Z,100795.85
2023-04-06T09:27:38.377Z,100789.67
2023-04-06T09:31:42.752Z,100787.15
2023-04-06T09:35:51.707Z,100788.23
2023-04-06T09:40:09.219Z,100784.42
2023-04-06T09:44:14.442Z,100786.32
2023-04-06T09:48:19.201Z,100783.88
2023-04-06T09:52:26.185Z,100782.77
2023-04-06T09:56:33.742Z,100777.80
2023-04-06T10:01:03.021Z,100778.15
2023-04-06T10:05:14.071Z,100780.48
2023-04-06T10:09:17.576Z,100777.77
2023-04-06T10:13:21.174Z,100770.75
2023-04-06T10:17:27.034Z,100776.73
2023-04-06T10:21:33.704Z,100772.50
2023-04-06T10:25:38.015Z,100772.48
2023-04-06T10:29:46.296Z,100773.55
2023-04-06T10:33:59.891Z,100760.95
2023-04-06T10:38:04.636Z,100762.21
2023-04-06T10:42:08.275Z,100759.81
2023-04-06T10:46:11.997Z,100760.37
2023-04-06T10:50:19.987Z,100755.20
2023-04-06T10:54:25.743Z,100757.24
2023-04-06T10:58:28.822Z,100753.48
2023-04-06T11:02:32.567Z,100749.11
2023-04-06T11:06:35.933Z,100746.91
2023-04-06T11:10:38.872Z,100740.63
2023-04-06T11:14:42.775Z,100734.87
2023-04-06T11:18:58.101Z,100732.83
2023-04-06T11:23:01.434Z,100735.64
2023-04-06T11:27:06.149Z,100737.14
2023-04-06T11:31:10.543Z,100731.70
2023-04-06T11:35:24.125Z,100726.20
2023-04-06T11:39:29.583Z,100718.03
2023-04-06T11:43:32.839Z,100717.36
2023-04-06T11:47:38.820Z,100708.07
2023-04-06T11:51:42.019Z,100703.30
2023-04-06T11:55:47.880Z,100703.11
2023-04-06T11:59:51.161Z,100695.98
2023-04-06T12:03:54.948Z,100689.99
2023-04-06T12:08:01.082Z,100688.48
2023-04-06T12:12:06.397Z,100690.44
2023-04-06T12:16:09.519Z,100686.70
2023-04-06T12:20:24.747Z,100684.59
2023-04-06T12:24:30.006Z,100682.23
2023-04-06T12:28:32.970Z,100685.88
2023-04-06T12:32:35.966Z,100682.81
2023-04-06T12:36:39.988Z,100674.48
2023-04-06T12:40:43.061Z,100667.48
2023-04-06T12:44:46.407Z,100669.02
2023-04-06T12:48:49.351Z,100667.27
2023-04-06T12:52:52.388Z,100663.35
2023-04-06T12:56:57.597Z,100657.64
2023-04-06T13:01:04.046Z,100653.25
2023-04-06T13:05:07.025Z,100648.27
2023-04-06T13:09:10.236Z,100645.19
2023-04-06T13:13:13.276Z,100649.36
2023-04-06T13:17:17.759Z,100635.85
2023-04-06T13:21:21.945Z,100631.67
2023-04-06T13:25:25.413Z,100629.88
2023-04-06T13:29:28.387Z,100624.49
2023-04-06T13:33:31.980Z,100623.46
2023-04-06T13:37:35.878Z,100617.09
2023-04-06T13:41:38.679Z,100616.73
2023-04-06T13:45:41.677Z,100602.60
2023-04-06T13:49:44.700Z,100599.28
2023-04-06T13:53:47.580Z,100596.89
2023-04-06T13:57:50.570Z,100594.61
2023-04-06T14:01:53.896Z,100601.45
2023-04-06T14:06:01.332Z,100598.80
2023-04-06T14:10:14.856Z,100596.61
2023-04-06T14:14:18.450Z,100596.70
2023-04-06T14:18:22.280Z,100591.49
2023-04-06T14:22:25.526Z,100591.89
2023-04-06T14:26:28.681Z,100585.77
2023-04-06T14:30:32.052Z,100588.55
2023-04-06T14:34:38.408Z,100581.71
2023-04-06T14:38:41.609Z,100581.38
2023-04-06T14:42:44.378Z,100584.18
2023-04-06T14:46:47.369Z,100580.90
2023-04-06T14:50:54.445Z,100579.22
2023-04-06T14:54:57.319Z,100578.20
2023-04-06T14:59:02.429Z,100575.84
2023-04-06T15:03:05.761Z,100573.52
2023-04-06T15:07:08.771Z,100572.56
2023-04-06T15:11:12.815Z,100573.84
2023-04-06T15:15:16.359Z,100569.02
2023-04-06T15:19:19.297Z,100567.05
2023-04-06T15:23:22.173Z,100562.63
2023-04-06T15:27:25.608Z,100558.90
2023-04-06T15:31:37.779Z,100554.44
2023-04-06T15:35:43.560Z,100561.73
2023-04-06T15:39:46.616Z,100564.58
2023-04-06T15:43:52.125Z,100563.88
2023-04-06T15:47:55.161Z,100560.11
2023-04-06T15:51:57.999Z,100568.77
2023-04-06T15:56:02.299Z,100561.77
2023-04-06T16:00:06.159Z,100562.48
2023-04-06T16:04:11.351Z,100561.98
2023-04-06T16:08:17.168Z,100561.56
2023-04-06T16:12:21.463Z,100561.10
2023-04-06T16:16:24.502Z,100561.50
2023-04-06T16:20:27.671Z,100557.77
2023-04-06T16:24:30.657Z,100557.84
2023-04-06T16:28:34.376Z,100558.07
2023-04-06T16:32:37.651Z,100556.66
2023-04-06T16:36:47.352Z,100556.67
2023-04-06T16:41:04.989Z,100555.15
2023-04-06T16:45:15.430Z,100551.66
2023-04-06T16:49:44.687Z,100551.67
2023-04-06T16:53:52.688Z,100555.08
2023-04-06T16:57:57.460Z,100552.15
2023-04-06T17:02:10.928Z,100550.45
2023-04-06T17:06:16.366Z,100548.54
2023-04-06T17:10:28.975Z,100544.56
2023-04-06T17:14:43.699Z,100546.09
2023-04-06T17:18:54.803Z,100545.12
2023-04-06T17:23:05.140Z,100550.75
2023-04-06T17:27:11.917Z,100556.41
2023-04-06T17:31:27.261Z,100559.44
2023-04-06T17:35:47.040Z,100561.98
2023-04-06T17:44:18.521Z,100566.77
2023-04-06T17:48:41.908Z,100570.39
2023-04-06T17:53:08.248Z,100575.36
2023-04-06T17:57:18.943Z,100577.59
2023-04-06T18:01:22.770Z,100580.86
2023-04-06T18:05:35.604Z,100582.40
2023-04-06T18:09:46.595Z,100582.14
2023-04-06T18:13:59.503Z,100579.17
2023-04-06T18:18:09.932Z,100579.02
2023-04-06T18:22:18.557Z,100578.61
2023-04-06T18:26:25.905Z,100579.19
2023-04-06T18:30:29.853Z,100579.67
2023-04-06T18:34:33.614Z,100583.24
2023-04-06T18:38:38.596Z,100585.38
2023-04-06T18:42:41.513Z,100582.10
2023-04-06T18:46:45.122Z,100585.24
2023-04-06T18:51:00.315Z,100584.44
2023-04-06T18:55:27.066Z,100588.41
2023-04-06T18:59:46.575Z,100589.69
2023-04-06T19:03:53.966Z,100585.41
2023-04-06T19:07:57.132Z,100582.32
2023-04-06T19:12:03.793Z,100589.54
2023-04-06T19:16:28.619Z,100589.22
2023-04-06T19:20:35.562Z,100590.23
2023-04-06T19:24:45.661Z,100591.23
2023-04-06T19:28:53.666Z,100593.27
2023-04-06T19:32:58.006Z,100590.13
2023-04-06T19:37:04.974Z,100589.97
2023-04-06T19:41:15.360Z,100591.15
2023-04-06T19:45:22.650Z,100587.73
2023-04-06T19:49:30.408Z,100586.02
2023-04-06T19:53:35.157Z,100583.72
2023-04-06T19:57:42.145Z,100584.94
2023-04-06T20:01:51.793Z,100589.98
2023-04-06T20:05:56.778Z,100583.16
2023-04-06T20:10:11.493Z,100584.58
2023-04-06T20:14:20.259Z,100585.16
2023-04-06T20:18:25.340Z,100583.98
2023-04-06T20:22:38.057Z,100586.75
2023-04-06T20:26:41.086Z,100584.30
2023-04-06T20:30:44.105Z,100577.73
2023-04-06T20:34:47.904Z,100578.23
2023-04-06T20:38:51.081Z,100577.21
2023-04-06T20:42:57.616Z,100575.89
2023-04-06T20:47:00.797Z,100572.44
2023-04-06T20:51:05.640Z,100572.02
2023-04-06T20:55:09.072Z,100572.41
2023-04-06T20:59:12.500Z,100569.32
2023-04-06T21:03:17.457Z,100564.39
2023-04-06T21:07:20.831Z,100565.86
2023-04-06T21:11:23.635Z,100558.92
2023-04-06T21:15:27.254Z,100556.95
2023-04-06T21:19:30.378Z,100558.86
2023-04-06T21:23:33.350Z,100565.30
2023-04-06T21:27:36.309Z,100564.13
2023-04-06T21:31:42.188Z,100561.11
2023-04-06T21:35:45.559Z,100554.20
2023-04-06T21:39:48.556Z,100552.60
2023-04-06T21:43:51.448Z,100550.93
2023-04-06T21:47:54.727Z,100551.02
2023-04-06T21:51:57.768Z,100548.00
2023-04-06T21:56:00.974Z,100541.98
2023-04-06T22:00:10.380Z,100540.11
2023-04-06T22:04:13.706Z,100533.63
2023-04-06T22:08:25.464Z,100526.56
2023-04-06T22:12:33.146Z,100520.42
2023-04-06T22:16:36.275Z,100524.20
2023-04-06T22:20:39.300Z,100520.41
2023-04-06T22:24:42.389Z,100519.59
2023-04-06T22:28:45.330Z,100518.50
2023-04-06T22:32:48.292Z,100519.12
2023-04-06T22:36:51.268Z,100520.20
2023-04-06T22:40:54.222Z,100516.95
2023-04-06T22:44:57.054Z,100512.96
2023-04-06T22:48:59.978Z,100508.30
2023-04-06T22:53:02.885Z,100505.48
2023-04-06T22:57:06.052Z,100507.59
2023-04-06T23:01:09.199Z,100504.44
2023-04-06T23:05:12.501Z,100501.11
2023-04-06T23:09:15.264Z,100500.11
2023-04-06T23:13:17.991Z,100497.03
2023-04-06T23:17:20.814Z,100489.11
2023-04-06T23:21:23.696Z,100491.14
2023-04-06T23:25:27.166Z,100487.48
2023-04-06T23:29:30.186Z,100486.92
2023-04-06T23:33:33.154Z,100484.81
2023-04-06T23:37:36.145Z,100482.75
2023-04-06T23:41:39.026Z,100481.63
2023-04-06T23:45:42.776Z,100483.88
2023-04-06T23:49:45.881Z,100478.55
2023-04-06T23:53:48.632Z,100475.39
2023-04-06T23:57:51.379Z,100478.12
